Terminal Aerodrome Forecast
Issued by NWS

Home | Current Version | Previous Version | Text Only | Print | Product List | Glossary On
Versions: 1 2 3 4 5 6 7 8 9 10 11 12 13 14 15 16 17 18 19
191
FTUS46 KPDT 131120
TAFBDN
TAF
KBDN 131120Z 1312/1412 VRB05KT P6SM BKN060
     FM131500 21006KT P6SM SCT090 SCT200
     FM132100 22011KT P6SM BKN080
     FM140300 30010KT P6SM SCT050 BKN080
     FM140600 VRB04KT 6SM -RA OVC050=

USA.gov is the U.S. government's official web portal to all federal, state and local government web resources and services.